Time;durP1;ratioP1;P1;durP2;ratioP2;P2;SDS_P1;SDS_P2;PMS_P1;PMS_P2;Temp;Humidity;BMP_temperature;BMP_pressure;BME280_temperature;BME280_humidity;BME280_pressure;Samples;Min_cycle;Max_cycle;Signal;HPM_P1;HPM_P2
2023/11/29 00:00:48;;;;;;;5.30;2.35;;;3.40;85.80;;;;;;5048791;28;20067;-62
2023/11/29 00:03:14;;;;;;;2.05;1.70;;;3.50;85.70;;;;;;5053797;28;20032;-62
2023/11/29 00:05:39;;;;;;;5.30;2.72;;;3.50;85.70;;;;;;5051800;28;20037;-62
2023/11/29 00:08:05;;;;;;;4.15;2.30;;;3.50;85.70;;;;;;5049200;28;20097;-62
2023/11/29 00:10:31;;;;;;;3.35;2.85;;;3.50;85.70;;;;;;5055084;28;20087;-62
2023/11/29 00:12:57;;;;;;;2.90;2.53;;;3.50;85.70;;;;;;5054462;28;20376;-61
2023/11/29 00:15:23;;;;;;;5.07;3.45;;;3.50;85.70;;;;;;5057714;28;20033;-62
2023/11/29 00:17:50;;;;;;;4.28;3.45;;;3.50;85.80;;;;;;5049386;28;20029;-61
2023/11/29 00:20:15;;;;;;;4.80;3.00;;;3.50;85.80;;;;;;5051469;28;20029;-62
2023/11/29 00:22:41;;;;;;;5.72;3.88;;;3.50;85.70;;;;;;5048584;28;20033;-61
2023/11/29 00:25:08;;;;;;;5.75;3.40;;;3.60;86.10;;;;;;5052536;28;20033;-62
2023/11/29 00:27:34;;;;;;;4.57;2.97;;;3.50;86.50;;;;;;5057718;28;20033;-62
2023/11/29 00:30:00;;;;;;;4.60;3.03;;;3.60;85.90;;;;;;5064407;28;20037;-61
2023/11/29 00:32:26;;;;;;;3.78;3.10;;;3.60;85.90;;;;;;5054155;28;20091;-61
2023/11/29 00:34:52;;;;;;;4.50;4.03;;;3.60;86.10;;;;;;5053475;28;20514;-61
2023/11/29 00:37:17;;;;;;;6.72;3.75;;;3.70;86.60;;;;;;5050599;28;20036;-61
2023/11/29 00:39:43;;;;;;;4.72;3.15;;;3.70;85.80;;;;;;5052884;28;20024;-61
2023/11/29 00:42:09;;;;;;;7.28;3.45;;;3.70;85.90;;;;;;5058770;28;20735;-62
2023/11/29 00:44:34;;;;;;;4.38;3.85;;;3.70;86.10;;;;;;5051481;28;20132;-62
2023/11/29 00:47:00;;;;;;;5.97;3.83;;;3.70;86.20;;;;;;5049706;28;20064;-62
2023/11/29 00:49:26;;;;;;;4.97;3.67;;;3.70;86.20;;;;;;5055158;28;20036;-61
2023/11/29 00:51:51;;;;;;;5.38;3.55;;;3.70;86.30;;;;;;5049416;28;20073;-61
2023/11/29 00:54:17;;;;;;;9.00;3.72;;;3.70;86.40;;;;;;5057468;28;20656;-61
2023/11/29 00:56:43;;;;;;;5.75;3.28;;;3.70;86.40;;;;;;5053202;28;20117;-61
2023/11/29 00:59:09;;;;;;;7.00;3.90;;;3.70;86.30;;;;;;5056086;28;20514;-61
2023/11/29 01:01:34;;;;;;;7.03;3.70;;;3.80;86.10;;;;;;5052955;28;20066;-61
2023/11/29 01:04:02;;;;;;;5.65;3.38;;;3.80;86.00;;;;;;5050584;28;20033;-61
2023/11/29 01:06:28;;;;;;;6.55;3.25;;;3.80;85.90;;;;;;5050911;28;20684;-61
2023/11/29 01:08:54;;;;;;;3.33;3.00;;;3.80;85.80;;;;;;5049796;28;20558;-61
2023/11/29 01:11:20;;;;;;;6.45;3.00;;;3.90;85.70;;;;;;5052685;28;20025;-61
2023/11/29 01:13:46;;;;;;;5.45;2.50;;;3.90;85.60;;;;;;5055969;28;20384;-61
2023/11/29 01:16:12;;;;;;;5.25;3.85;;;3.90;85.60;;;;;;5058232;28;20024;-61
2023/11/29 01:18:43;;;;;;;7.53;3.08;;;3.80;85.60;;;;;;5035008;28;20201;-62
2023/11/29 01:21:13;;;;;;;5.25;2.88;;;3.80;85.80;;;;;;5051793;28;20408;-61
2023/11/29 01:23:39;;;;;;;3.58;2.53;;;3.80;86.10;;;;;;5051653;28;20151;-61
2023/11/29 01:26:05;;;;;;;4.97;3.30;;;3.80;86.30;;;;;;5052149;28;20499;-62
2023/11/29 01:28:31;;;;;;;4.18;2.78;;;3.80;86.30;;;;;;5059216;28;20032;-62
2023/11/29 01:30:57;;;;;;;4.78;3.15;;;3.80;86.30;;;;;;5048693;28;20037;-61
2023/11/29 01:33:23;;;;;;;6.60;3.65;;;3.80;86.30;;;;;;5051032;28;20250;-61
2023/11/29 01:35:49;;;;;;;6.22;3.38;;;3.80;86.40;;;;;;5050491;28;20107;-61
2023/11/29 01:38:15;;;;;;;4.65;3.42;;;3.80;86.50;;;;;;5048694;28;20357;-61
2023/11/29 01:40:40;;;;;;;5.15;3.55;;;3.80;86.50;;;;;;5047605;28;20392;-62
2023/11/29 01:43:06;;;;;;;5.03;3.85;;;3.90;86.60;;;;;;5055113;28;20490;-61
2023/11/29 01:45:32;;;;;;;4.82;3.28;;;3.90;86.40;;;;;;5060581;28;20029;-61
2023/11/29 01:47:58;;;;;;;8.02;3.10;;;3.90;86.30;;;;;;5053753;28;20479;-61
2023/11/29 01:50:28;;;;;;;6.07;4.25;;;3.90;86.40;;;;;;5048835;28;20391;-61
2023/11/29 01:52:54;;;;;;;4.85;3.17;;;3.90;86.50;;;;;;5047568;28;20246;-61
2023/11/29 01:55:22;;;;;;;5.25;3.22;;;3.90;86.50;;;;;;5054809;28;20040;-61
2023/11/29 01:57:49;;;;;;;4.70;3.30;;;3.90;86.50;;;;;;5052604;28;20544;-61
2023/11/29 02:00:15;;;;;;;4.20;3.05;;;3.90;86.40;;;;;;5051334;28;20303;-61
2023/11/29 02:02:42;;;;;;;5.78;3.53;;;3.90;86.60;;;;;;5051810;28;20028;-61
2023/11/29 02:05:08;;;;;;;5.60;3.40;;;3.90;86.60;;;;;;5048556;28;20345;-61
2023/11/29 02:07:35;;;;;;;4.20;3.08;;;3.90;86.60;;;;;;5055435;28;20482;-61
2023/11/29 02:10:01;;;;;;;3.92;2.90;;;4.00;86.60;;;;;;5058347;28;20036;-61
2023/11/29 02:12:27;;;;;;;4.00;2.88;;;4.00;86.60;;;;;;5057165;28;20114;-62
2023/11/29 02:14:56;;;;;;;3.47;2.67;;;4.00;86.60;;;;;;5054772;28;20480;-61
2023/11/29 02:17:22;;;;;;;4.90;2.67;;;4.00;86.80;;;;;;5054346;28;20037;-62
2023/11/29 02:19:47;;;;;;;11.13;2.55;;;4.00;87.00;;;;;;5054369;28;20396;-61
2023/11/29 02:22:15;;;;;;;2.38;2.17;;;3.90;87.10;;;;;;5052913;28;20037;-62
2023/11/29 02:24:42;;;;;;;3.67;2.28;;;4.00;87.10;;;;;;5048907;28;20029;-62
2023/11/29 02:27:09;;;;;;;2.90;2.20;;;4.00;87.00;;;;;;5046923;28;20021;-61
2023/11/29 02:29:34;;;;;;;3.80;2.53;;;4.00;87.10;;;;;;5049326;28;20025;-61
2023/11/29 02:32:00;;;;;;;5.60;2.20;;;4.00;87.10;;;;;;5048807;28;20032;-61
2023/11/29 02:34:26;;;;;;;2.88;2.40;;;4.00;87.00;;;;;;5046621;28;20511;-61
2023/11/29 02:36:51;;;;;;;5.10;2.30;;;4.00;87.10;;;;;;5036135;28;20043;-61
2023/11/29 02:39:17;;;;;;;2.90;2.50;;;4.00;87.30;;;;;;5053139;28;20051;-61
2023/11/29 02:41:43;;;;;;;3.20;1.83;;;3.90;87.30;;;;;;5055374;28;20138;-61
2023/11/29 02:44:09;;;;;;;3.25;2.08;;;4.00;87.40;;;;;;5055297;28;20021;-61
2023/11/29 02:46:34;;;;;;;2.38;2.05;;;4.00;87.30;;;;;;5047230;28;20036;-61
2023/11/29 02:49:00;;;;;;;2.20;1.85;;;4.10;87.20;;;;;;5051944;28;20038;-61
2023/11/29 02:51:27;;;;;;;3.78;2.63;;;4.10;87.10;;;;;;5054277;28;20451;-61
2023/11/29 02:53:53;;;;;;;2.97;2.25;;;4.10;87.00;;;;;;5055727;28;20369;-61
2023/11/29 02:56:19;;;;;;;2.92;2.20;;;4.10;86.90;;;;;;5050690;28;20033;-62
2023/11/29 02:58:45;;;;;;;2.42;2.03;;;4.10;87.00;;;;;;5045598;28;20028;-61
2023/11/29 03:01:11;;;;;;;3.58;2.38;;;4.00;87.00;;;;;;5048422;28;20468;-61
2023/11/29 03:03:36;;;;;;;5.40;3.22;;;4.00;87.20;;;;;;5048250;28;20104;-61
2023/11/29 03:06:02;;;;;;;3.30;2.78;;;4.00;87.20;;;;;;5046456;28;20033;-61
2023/11/29 03:08:28;;;;;;;3.92;2.67;;;4.00;87.30;;;;;;5050694;28;20044;-60
2023/11/29 03:10:54;;;;;;;5.22;2.67;;;4.00;87.40;;;;;;5056202;28;20514;-60
2023/11/29 03:13:20;;;;;;;4.07;2.67;;;4.00;87.40;;;;;;5053494;28;20036;-61
2023/11/29 03:15:46;;;;;;;3.97;2.72;;;4.00;87.50;;;;;;5049924;28;20055;-61
2023/11/29 03:18:11;;;;;;;4.63;2.90;;;3.90;87.50;;;;;;5048692;28;20040;-61
2023/11/29 03:20:37;;;;;;;5.35;3.55;;;4.00;87.50;;;;;;5049475;28;20108;-61
2023/11/29 03:23:03;;;;;;;3.10;2.67;;;4.00;87.40;;;;;;5048735;28;20494;-61
2023/11/29 03:25:28;;;;;;;3.63;2.88;;;4.00;87.30;;;;;;5052498;28;20388;-60
2023/11/29 03:27:54;;;;;;;4.43;3.20;;;4.00;87.30;;;;;;5048121;28;20032;-61
2023/11/29 03:30:20;;;;;;;3.92;3.53;;;4.00;87.20;;;;;;5049999;28;20029;-60
2023/11/29 03:32:46;;;;;;;4.03;2.88;;;4.00;87.30;;;;;;5046708;28;20039;-61
2023/11/29 03:35:12;;;;;;;4.55;2.95;;;4.00;87.30;;;;;;5053945;28;20083;-61
2023/11/29 03:37:37;;;;;;;6.40;4.18;;;4.00;87.20;;;;;;5048949;28;20437;-61
2023/11/29 03:40:04;;;;;;;6.28;4.07;;;3.90;87.20;;;;;;5051629;28;20491;-61
2023/11/29 03:42:29;;;;;;;4.47;3.53;;;4.00;87.20;;;;;;5052990;28;20044;-61
2023/11/29 03:44:55;;;;;;;4.68;3.83;;;3.90;87.20;;;;;;5053905;28;20029;-61
2023/11/29 03:47:21;;;;;;;7.25;3.28;;;3.90;87.30;;;;;;5051757;28;20037;-61
2023/11/29 03:49:47;;;;;;;5.43;4.22;;;3.90;87.40;;;;;;5051846;28;20041;-61
2023/11/29 03:52:13;;;;;;;4.30;3.55;;;3.90;87.30;;;;;;5054236;28;20047;-61
2023/11/29 03:54:38;;;;;;;5.35;3.53;;;3.90;87.30;;;;;;5054292;28;20035;-61
2023/11/29 03:57:04;;;;;;;5.03;4.07;;;3.90;87.20;;;;;;5050112;28;20492;-61
2023/11/29 03:59:31;;;;;;;6.43;3.22;;;4.00;87.20;;;;;;5053219;28;20366;-61
2023/11/29 04:01:56;;;;;;;4.70;3.60;;;4.00;87.20;;;;;;5050279;28;20033;-61
2023/11/29 04:04:22;;;;;;;7.20;4.60;;;4.00;87.70;;;;;;5051502;28;20098;-61
2023/11/29 04:06:48;;;;;;;9.10;4.32;;;3.90;87.20;;;;;;5044730;28;20013;-61
2023/11/29 04:09:14;;;;;;;5.78;3.90;;;3.90;87.30;;;;;;5050702;28;20131;-61
2023/11/29 04:11:39;;;;;;;6.88;3.58;;;3.90;87.50;;;;;;5048532;28;20032;-61
2023/11/29 04:14:05;;;;;;;4.18;3.35;;;3.90;87.60;;;;;;5049794;28;20044;-61
2023/11/29 04:16:31;;;;;;;4.47;4.07;;;3.90;87.50;;;;;;5034579;28;20637;-61
2023/11/29 04:18:57;;;;;;;6.03;3.97;;;3.90;87.50;;;;;;5044147;28;20053;-62
2023/11/29 04:21:24;;;;;;;5.55;4.07;;;3.90;87.50;;;;;;5044075;28;20044;-61
2023/11/29 04:23:50;;;;;;;5.07;3.47;;;3.90;87.60;;;;;;5049536;28;20017;-61
2023/11/29 04:26:42;;;;;;;4.53;3.63;;;3.90;87.70;;;;;;5047741;28;20044;-61
2023/11/29 04:29:09;;;;;;;5.88;3.10;;;3.90;87.70;;;;;;5052153;28;20446;-61
2023/11/29 04:31:36;;;;;;;7.35;3.53;;;3.90;88.00;;;;;;5052009;28;20029;-61
2023/11/29 04:34:02;;;;;;;9.75;3.97;;;3.90;88.10;;;;;;5054315;28;20056;-61
2023/11/29 04:36:28;;;;;;;7.60;3.15;;;4.00;88.00;;;;;;5047953;28;20384;-61
2023/11/29 04:38:54;;;;;;;5.90;3.30;;;4.10;87.90;;;;;;5049741;28;20034;-61
2023/11/29 04:41:22;;;;;;;5.40;3.40;;;4.10;87.80;;;;;;5050524;28;20025;-61
2023/11/29 04:43:48;;;;;;;6.05;3.97;;;4.10;87.70;;;;;;5045504;28;20033;-61
2023/11/29 04:46:14;;;;;;;5.07;3.42;;;4.10;87.90;;;;;;5047484;28;20079;-61
2023/11/29 04:48:43;;;;;;;3.58;2.35;;;4.10;87.80;;;;;;5042238;28;20052;-61
2023/11/29 04:51:10;;;;;;;3.63;2.97;;;4.10;87.80;;;;;;5035486;28;20022;-61
2023/11/29 04:53:37;;;;;;;3.20;2.88;;;4.20;87.70;;;;;;5036769;28;20029;-62
2023/11/29 04:56:04;;;;;;;6.10;3.03;;;4.20;87.60;;;;;;5035936;28;20067;-61
2023/11/29 04:58:30;;;;;;;3.35;2.58;;;4.20;87.60;;;;;;5042518;28;20034;-61
2023/11/29 05:00:56;;;;;;;2.67;2.47;;;4.20;87.50;;;;;;5046264;28;20040;-62
2023/11/29 05:03:21;;;;;;;3.47;2.65;;;4.30;87.50;;;;;;5035825;28;20032;-61
2023/11/29 05:05:48;;;;;;;4.93;2.88;;;4.30;87.50;;;;;;5037674;28;20025;-61
2023/11/29 05:08:14;;;;;;;3.80;2.63;;;4.20;87.70;;;;;;5040712;28;20111;-61
2023/11/29 05:10:41;;;;;;;5.07;3.65;;;4.20;87.60;;;;;;5037811;28;20063;-61
2023/11/29 05:13:07;;;;;;;4.15;2.55;;;4.20;87.60;;;;;;5046049;28;20033;-61
2023/11/29 05:15:36;;;;;;;5.28;3.17;;;4.20;87.60;;;;;;5036280;28;20082;-61
2023/11/29 05:18:02;;;;;;;8.43;3.17;;;4.20;87.70;;;;;;5035068;28;20053;-61
2023/11/29 05:20:28;;;;;;;4.18;2.95;;;4.20;87.80;;;;;;5037812;28;20037;-61
2023/11/29 05:22:54;;;;;;;3.85;3.05;;;4.20;87.90;;;;;;5040529;28;20580;-61
2023/11/29 05:25:20;;;;;;;3.45;2.47;;;4.30;87.90;;;;;;5045276;28;20083;-61
2023/11/29 05:27:46;;;;;;;3.75;2.70;;;4.30;87.90;;;;;;5034122;28;20033;-61
2023/11/29 05:30:12;;;;;;;4.30;2.47;;;4.20;87.90;;;;;;5044157;28;20656;-61
2023/11/29 05:32:38;;;;;;;3.97;2.72;;;4.20;88.00;;;;;;5047413;28;20115;-61
2023/11/29 05:35:04;;;;;;;2.58;2.25;;;4.20;88.10;;;;;;5041508;28;20082;-61
2023/11/29 05:37:30;;;;;;;3.63;2.67;;;4.20;88.10;;;;;;5045773;28;20369;-61
2023/11/29 05:39:56;;;;;;;3.90;2.67;;;4.30;88.10;;;;;;5052256;28;20033;-61
2023/11/29 05:42:23;;;;;;;5.50;2.83;;;4.20;88.10;;;;;;5042566;28;20032;-61
2023/11/29 05:44:49;;;;;;;3.13;1.88;;;4.30;88.10;;;;;;5044603;28;20033;-61
2023/11/29 05:47:15;;;;;;;5.97;2.55;;;4.30;88.10;;;;;;5041037;28;20486;-61
2023/11/29 05:49:41;;;;;;;3.47;1.88;;;4.40;88.10;;;;;;5043263;28;20029;-61
2023/11/29 05:52:07;;;;;;;5.82;2.65;;;4.40;88.00;;;;;;5044722;28;20071;-61
2023/11/29 05:54:33;;;;;;;3.45;2.33;;;4.40;87.90;;;;;;5045178;28;20496;-61
2023/11/29 05:56:59;;;;;;;4.25;2.47;;;4.40;88.00;;;;;;5047908;28;20022;-61
2023/11/29 05:59:26;;;;;;;3.10;2.05;;;4.40;88.00;;;;;;5050259;28;20034;-61
2023/11/29 06:01:54;;;;;;;5.50;3.25;;;4.40;87.80;;;;;;5042938;28;20055;-61
2023/11/29 06:04:20;;;;;;;4.43;2.50;;;4.40;88.00;;;;;;5046139;28;20622;-61
2023/11/29 06:06:46;;;;;;;2.80;1.83;;;4.40;88.10;;;;;;5044160;28;20109;-61
2023/11/29 06:09:12;;;;;;;3.45;1.65;;;4.40;88.00;;;;;;5044681;28;20055;-61
2023/11/29 06:11:37;;;;;;;5.28;2.55;;;4.50;88.00;;;;;;5045636;28;20031;-62
2023/11/29 06:14:04;;;;;;;2.58;1.95;;;4.50;88.10;;;;;;5035106;28;20261;-61
2023/11/29 06:16:29;;;;;;;4.03;2.42;;;4.40;88.10;;;;;;5039139;28;20036;-62
2023/11/29 06:18:55;;;;;;;2.95;1.67;;;4.50;88.20;;;;;;5044918;28;20045;-61
2023/11/29 06:21:20;;;;;;;4.72;2.15;;;4.50;88.00;;;;;;5043419;28;20079;-61
2023/11/29 06:23:46;;;;;;;4.03;1.80;;;4.50;87.90;;;;;;5046391;28;20388;-62
2023/11/29 06:26:12;;;;;;;2.90;2.20;;;4.50;87.90;;;;;;5041107;28;20033;-62
2023/11/29 06:28:40;;;;;;;2.97;2.42;;;4.50;87.80;;;;;;5040110;28;20407;-62
2023/11/29 06:31:09;;;;;;;3.97;2.22;;;4.50;87.80;;;;;;5046495;28;20033;-61
2023/11/29 06:33:34;;;;;;;5.40;2.53;;;4.50;88.00;;;;;;5041597;28;20037;-61
2023/11/29 06:36:04;;;;;;;3.42;2.28;;;4.50;88.70;;;;;;5049547;28;20065;-62
2023/11/29 06:38:31;;;;;;;3.40;2.40;;;4.50;88.10;;;;;;5043640;28;20043;-62
2023/11/29 06:40:57;;;;;;;3.35;1.88;;;4.50;88.10;;;;;;5041864;28;20041;-61
2023/11/29 06:43:23;;;;;;;3.03;1.77;;;4.50;88.20;;;;;;5040501;28;20412;-61
2023/11/29 06:45:49;;;;;;;3.20;2.25;;;4.50;88.20;;;;;;5046137;28;20098;-61
2023/11/29 06:48:15;;;;;;;2.17;1.35;;;4.50;88.20;;;;;;5044204;28;20030;-61
2023/11/29 06:50:42;;;;;;;9.45;1.60;;;4.50;88.20;;;;;;5046688;28;20032;-62
2023/11/29 06:53:08;;;;;;;3.33;1.40;;;4.50;88.20;;;;;;5039175;28;20457;-62
2023/11/29 06:55:34;;;;;;;4.43;1.10;;;4.60;88.20;;;;;;5046796;28;20514;-61
2023/11/29 06:58:01;;;;;;;2.15;0.82;;;4.60;88.10;;;;;;5042567;28;20029;-62
2023/11/29 07:00:27;;;;;;;1.40;0.85;;;4.70;88.00;;;;;;5044427;28;20038;-62
2023/11/29 07:02:53;;;;;;;2.72;0.68;;;4.70;87.90;;;;;;5043255;28;20084;-61
2023/11/29 07:05:18;;;;;;;0.80;0.80;;;4.80;87.80;;;;;;5047434;28;20064;-61
2023/11/29 07:07:46;;;;;;;1.45;0.82;;;4.80;87.50;;;;;;5037152;28;20025;-61
2023/11/29 07:10:12;;;;;;;0.73;0.60;;;4.90;87.50;;;;;;5040434;28;20039;-61
2023/11/29 07:12:38;;;;;;;0.40;0.32;;;4.90;87.30;;;;;;5044867;28;20032;-61
2023/11/29 07:15:04;;;;;;;0.40;0.40;;;4.90;87.20;;;;;;5050537;28;21050;-61
2023/11/29 07:17:30;;;;;;;0.57;0.20;;;4.90;87.20;;;;;;5045611;28;20046;-62
2023/11/29 07:19:56;;;;;;;1.10;0.50;;;5.00;87.20;;;;;;5039992;28;20045;-62
2023/11/29 07:22:24;;;;;;;0.95;0.50;;;5.00;87.00;;;;;;5041067;28;20021;-62
2023/11/29 07:24:50;;;;;;;3.20;0.43;;;5.00;86.90;;;;;;5048238;28;20484;-62
2023/11/29 07:27:16;;;;;;;1.38;0.40;;;5.00;86.90;;;;;;5047243;28;20021;-62
2023/11/29 07:29:41;;;;;;;0.30;0.30;;;5.00;86.90;;;;;;5047549;28;20033;-62
2023/11/29 07:32:07;;;;;;;0.47;0.47;;;5.00;86.80;;;;;;5051945;28;20040;-61
2023/11/29 07:34:33;;;;;;;1.38;0.55;;;5.00;86.80;;;;;;5048075;28;20414;-62
2023/11/29 07:36:59;;;;;;;0.40;0.35;;;5.00;86.80;;;;;;5045158;28;20590;-62
2023/11/29 07:39:27;;;;;;;0.47;0.40;;;5.00;86.70;;;;;;5049344;28;20407;-62
2023/11/29 07:41:53;;;;;;;0.22;0.22;;;5.10;86.70;;;;;;5047996;28;20472;-62
2023/11/29 07:44:20;;;;;;;2.03;0.75;;;5.10;86.60;;;;;;5050142;28;20044;-62
2023/11/29 07:46:46;;;;;;;0.40;0.32;;;5.00;86.50;;;;;;5051532;28;20076;-62
2023/11/29 07:49:15;;;;;;;2.78;0.55;;;5.10;86.60;;;;;;5054063;28;20487;-62
2023/11/29 07:51:45;;;;;;;2.17;0.60;;;5.10;86.60;;;;;;5049209;28;20037;-62
2023/11/29 07:54:11;;;;;;;0.28;0.25;;;5.10;86.40;;;;;;5051705;28;20031;-62
2023/11/29 07:56:37;;;;;;;0.70;0.60;;;5.00;86.40;;;;;;5052810;28;20021;-62
2023/11/29 07:59:03;;;;;;;3.15;0.85;;;5.00;86.30;;;;;;5054257;28;20040;-62
2023/11/29 08:01:29;;;;;;;0.20;0.20;;;5.00;86.40;;;;;;5038730;28;20032;-62
2023/11/29 08:03:55;;;;;;;1.23;0.73;;;5.00;86.40;;;;;;5042617;28;20072;-62
2023/11/29 08:06:21;;;;;;;0.75;0.57;;;5.00;86.40;;;;;;5037749;28;20457;-61
2023/11/29 08:08:47;;;;;;;1.05;0.65;;;5.00;86.40;;;;;;5050123;28;20417;-62
2023/11/29 08:11:13;;;;;;;1.65;0.70;;;5.00;86.40;;;;;;5045778;28;20029;-62
2023/11/29 08:13:38;;;;;;;0.50;0.50;;;5.00;86.40;;;;;;5042794;28;20399;-62
2023/11/29 08:16:05;;;;;;;1.25;0.70;;;5.10;86.40;;;;;;5041891;28;20033;-63
2023/11/29 08:18:31;;;;;;;0.35;0.35;;;5.10;86.30;;;;;;5052355;28;20416;-63
2023/11/29 08:20:58;;;;;;;0.82;0.35;;;5.20;86.30;;;;;;5053271;28;20033;-62
2023/11/29 08:23:24;;;;;;;0.25;0.25;;;5.40;86.30;;;;;;5052059;28;20070;-62
2023/11/29 08:25:49;;;;;;;0.40;0.40;;;5.50;86.10;;;;;;5045076;28;20037;-62
2023/11/29 08:28:15;;;;;;;0.32;0.32;;;5.60;85.90;;;;;;5054276;28;20021;-62
2023/11/29 08:30:41;;;;;;;0.35;0.28;;;5.60;85.60;;;;;;5051819;28;20466;-62
2023/11/29 08:33:08;;;;;;;0.55;0.47;;;5.60;85.50;;;;;;5048946;28;20056;-62
2023/11/29 08:35:33;;;;;;;1.95;0.45;;;5.60;85.40;;;;;;5050695;28;20047;-61
2023/11/29 08:37:59;;;;;;;0.77;0.60;;;5.60;85.40;;;;;;5045404;28;20794;-61
2023/11/29 08:40:25;;;;;;;0.55;0.45;;;5.60;85.40;;;;;;5038623;28;20507;-61
2023/11/29 08:42:50;;;;;;;0.82;0.65;;;5.50;85.30;;;;;;5051423;28;20080;-61
2023/11/29 08:45:16;;;;;;;0.95;0.65;;;5.50;85.40;;;;;;5034819;28;20033;-62
2023/11/29 08:47:42;;;;;;;0.68;0.43;;;5.50;85.50;;;;;;5058748;28;20063;-61
2023/11/29 08:50:08;;;;;;;1.85;0.73;;;5.40;85.50;;;;;;5048868;28;20032;-62
2023/11/29 08:52:33;;;;;;;4.35;1.13;;;5.40;85.60;;;;;;5046734;28;20041;-62
2023/11/29 08:54:59;;;;;;;0.75;0.70;;;5.40;85.40;;;;;;5048055;28;20044;-60
2023/11/29 08:57:25;;;;;;;0.63;0.52;;;5.40;85.50;;;;;;5051475;28;20036;-62
2023/11/29 08:59:52;;;;;;;1.00;0.50;;;5.30;85.50;;;;;;5049874;28;20087;-62
2023/11/29 09:02:21;;;;;;;1.48;0.55;;;5.40;85.60;;;;;;5031884;28;20013;-61
2023/11/29 09:04:48;;;;;;;0.82;0.80;;;5.40;85.60;;;;;;5045179;28;20029;-62
2023/11/29 09:07:13;;;;;;;3.30;0.98;;;5.40;85.50;;;;;;5048488;28;20476;-61
2023/11/29 09:09:45;;;;;;;1.45;0.77;;;5.40;85.30;;;;;;5051203;28;20143;-61
2023/11/29 09:12:11;;;;;;;1.35;0.63;;;5.40;85.40;;;;;;5047607;28;20472;-61
2023/11/29 09:14:38;;;;;;;1.42;0.60;;;5.40;85.40;;;;;;5053948;28;20342;-61
2023/11/29 09:17:04;;;;;;;1.33;1.05;;;5.40;85.20;;;;;;5038439;28;20035;-62
2023/11/29 09:19:32;;;;;;;1.23;0.88;;;5.50;85.30;;;;;;5047512;28;20048;-62
2023/11/29 09:22:01;;;;;;;6.68;0.95;;;5.50;85.20;;;;;;5047459;28;20021;-62
2023/11/29 09:24:27;;;;;;;0.65;0.65;;;5.60;85.10;;;;;;5055869;28;20502;-62
2023/11/29 09:26:56;;;;;;;1.65;0.98;;;5.60;84.80;;;;;;5055687;28;20013;-62
2023/11/29 09:29:25;;;;;;;1.48;0.98;;;5.60;84.70;;;;;;5049974;28;20492;-61
2023/11/29 09:31:52;;;;;;;1.77;0.77;;;5.60;84.70;;;;;;5047719;28;20473;-62
2023/11/29 09:34:17;;;;;;;1.17;0.60;;;5.70;84.70;;;;;;5054604;28;20021;-61
2023/11/29 09:36:43;;;;;;;1.42;1.02;;;5.70;84.60;;;;;;5045416;28;20032;-62
2023/11/29 09:39:12;;;;;;;1.23;0.90;;;5.80;84.30;;;;;;5052401;28;20071;-62
2023/11/29 09:41:39;;;;;;;4.18;1.50;;;5.90;84.40;;;;;;5048615;28;20036;-62
2023/11/29 09:44:05;;;;;;;2.00;0.70;;;6.00;84.20;;;;;;5051224;28;20487;-62
2023/11/29 09:46:31;;;;;;;1.35;0.60;;;6.00;83.60;;;;;;5047575;28;20705;-62
2023/11/29 09:48:58;;;;;;;0.90;0.82;;;6.10;83.40;;;;;;5052629;28;20124;-62
2023/11/29 09:51:24;;;;;;;2.05;1.08;;;6.10;83.20;;;;;;5052177;28;20398;-62
2023/11/29 09:53:50;;;;;;;3.00;0.95;;;6.20;83.20;;;;;;5047872;28;20027;-62
2023/11/29 09:56:15;;;;;;;1.85;0.93;;;6.30;83.00;;;;;;5053635;28;20960;-62
2023/11/29 09:58:41;;;;;;;0.82;0.70;;;6.40;82.50;;;;;;5052304;28;20040;-62
2023/11/29 10:01:07;;;;;;;0.90;0.60;;;6.50;82.40;;;;;;5055409;28;20037;-62
2023/11/29 10:03:34;;;;;;;4.65;1.20;;;6.50;82.30;;;;;;5058320;28;20099;-61
2023/11/29 10:06:02;;;;;;;2.28;0.70;;;6.50;82.10;;;;;;5050259;28;20052;-62
2023/11/29 10:08:28;;;;;;;0.60;0.60;;;6.50;81.90;;;;;;5052935;28;20080;-61
2023/11/29 10:10:54;;;;;;;0.60;0.60;;;6.60;81.90;;;;;;5052711;28;20056;-62
2023/11/29 10:13:20;;;;;;;2.40;1.25;;;6.70;81.90;;;;;;5054542;28;20655;-62
2023/11/29 10:15:49;;;;;;;0.73;0.70;;;6.90;81.70;;;;;;5049965;28;20021;-62
2023/11/29 10:18:17;;;;;;;1.40;0.98;;;7.20;80.40;;;;;;5049338;28;20076;-62
2023/11/29 10:20:48;;;;;;;2.05;0.90;;;8.00;79.90;;;;;;5047825;28;20035;-62
2023/11/29 10:23:13;;;;;;;1.60;1.17;;;8.90;77.10;;;;;;5041411;28;20036;-62
2023/11/29 10:25:40;;;;;;;2.28;1.20;;;9.40;75.00;;;;;;5045377;28;20464;-62
2023/11/29 10:28:06;;;;;;;0.73;0.73;;;9.80;73.80;;;;;;5049177;28;20032;-62
2023/11/29 10:30:32;;;;;;;1.25;0.75;;;9.80;72.60;;;;;;5044517;28;20051;-62
2023/11/29 10:32:59;;;;;;;1.42;0.88;;;9.50;73.50;;;;;;5051713;28;20067;-62
2023/11/29 10:35:28;;;;;;;0.90;0.55;;;9.40;73.20;;;;;;5040321;28;20133;-62
2023/11/29 10:37:59;;;;;;;2.03;0.90;;;9.70;73.60;;;;;;5051172;28;20064;-62
2023/11/29 10:40:25;;;;;;;1.45;0.93;;;10.20;71.90;;;;;;5052631;28;20040;-62
2023/11/29 10:42:54;;;;;;;2.17;0.98;;;10.70;70.00;;;;;;5054453;28;20458;-62
2023/11/29 10:45:20;;;;;;;3.53;0.88;;;11.40;69.20;;;;;;5052965;28;20067;-62
2023/11/29 10:48:02;;;;;;;2.28;1.05;;;11.60;67.10;;;;;;5048709;28;20025;-62
2023/11/29 10:50:30;;;;;;;1.00;0.57;;;11.40;67.40;;;;;;5045687;28;20044;-62
2023/11/29 10:52:56;;;;;;;0.85;0.40;;;11.30;67.60;;;;;;5045616;28;20033;-62
2023/11/29 10:55:23;;;;;;;0.80;0.70;;;11.50;67.80;;;;;;5048821;28;20048;-62
2023/11/29 10:58:12;;;;;;;1.08;0.80;;;11.40;67.00;;;;;;5044793;28;20040;-62
2023/11/29 11:00:38;;;;;;;1.75;0.80;;;11.00;66.50;;;;;;5050358;28;20045;-62
2023/11/29 11:03:08;;;;;;;1.58;0.80;;;10.40;67.20;;;;;;5054963;28;20024;-62
2023/11/29 11:05:34;;;;;;;1.20;0.98;;;10.00;68.00;;;;;;5050506;28;20166;-62
2023/11/29 11:08:00;;;;;;;1.45;0.68;;;9.70;68.80;;;;;;5033178;28;20147;-62
2023/11/29 11:10:26;;;;;;;0.45;0.40;;;9.50;68.20;;;;;;5055437;28;20041;-62
2023/11/29 11:12:56;;;;;;;1.63;0.80;;;9.30;68.60;;;;;;5050922;28;20066;-62
2023/11/29 11:15:24;;;;;;;0.40;0.40;;;9.10;69.20;;;;;;5048130;28;20045;-62
2023/11/29 11:18:02;;;;;;;0.93;0.77;;;8.80;69.50;;;;;;5047512;28;20029;-62
2023/11/29 11:20:50;;;;;;;1.27;0.40;;;8.60;70.00;;;;;;5050391;28;20121;-62
2023/11/29 11:23:18;;;;;;;0.93;0.50;;;8.50;70.20;;;;;;5046291;28;20472;-62
2023/11/29 11:25:43;;;;;;;0.60;0.40;;;8.40;70.20;;;;;;5050869;28;20028;-62
2023/11/29 11:28:30;;;;;;;1.45;0.80;;;8.40;70.20;;;;;;5049497;28;20785;-62
2023/11/29 11:30:56;;;;;;;7.93;0.95;;;8.50;70.50;;;;;;5047574;28;20029;-62
2023/11/29 11:33:22;;;;;;;1.27;0.40;;;9.00;70.10;;;;;;5043587;28;20071;-62
2023/11/29 11:35:48;;;;;;;1.00;0.90;;;9.40;68.50;;;;;;5044105;28;20132;-62
2023/11/29 11:38:13;;;;;;;1.85;0.93;;;9.40;68.00;;;;;;5048037;28;20083;-62
2023/11/29 11:40:41;;;;;;;1.27;0.98;;;9.30;67.80;;;;;;5042319;28;20120;-63
2023/11/29 11:43:08;;;;;;;1.13;0.55;;;9.10;67.60;;;;;;5047544;28;20064;-61
2023/11/29 11:45:36;;;;;;;0.88;0.57;;;9.00;68.50;;;;;;5047538;28;20048;-61
2023/11/29 11:48:07;;;;;;;0.80;0.50;;;9.20;68.50;;;;;;5052874;28;20021;-62
2023/11/29 11:50:33;;;;;;;0.75;0.40;;;9.50;67.70;;;;;;5039980;28;20025;-61
2023/11/29 11:52:59;;;;;;;2.67;0.82;;;9.50;67.30;;;;;;5041009;28;20024;-62
2023/11/29 11:55:26;;;;;;;0.73;0.45;;;9.30;67.00;;;;;;5041813;28;20041;-62
2023/11/29 11:57:53;;;;;;;3.60;0.95;;;9.00;67.40;;;;;;5048427;28;20029;-62
2023/11/29 12:00:21;;;;;;;0.95;0.50;;;8.70;68.20;;;;;;5051996;28;20029;-62
2023/11/29 12:02:48;;;;;;;0.28;0.28;;;8.50;68.80;;;;;;5044876;28;20066;-62
2023/11/29 12:05:13;;;;;;;11.13;1.13;;;8.30;69.30;;;;;;5052530;28;20021;-62
2023/11/29 12:07:43;;;;;;;0.60;0.55;;;8.10;69.60;;;;;;5046223;28;20318;-62
2023/11/29 12:10:10;;;;;;;0.90;0.82;;;8.00;69.80;;;;;;5048924;28;20025;-62
2023/11/29 12:12:37;;;;;;;0.60;0.60;;;7.70;69.70;;;;;;5051888;28;20454;-62
2023/11/29 12:15:03;;;;;;;0.55;0.55;;;7.60;70.30;;;;;;5058059;28;20040;-62
2023/11/29 12:17:34;;;;;;;0.52;0.50;;;7.60;70.70;;;;;;5060306;28;20033;-62
2023/11/29 12:20:05;;;;;;;3.85;1.15;;;7.50;70.40;;;;;;5051473;28;20523;-62
2023/11/29 12:22:38;;;;;;;3.35;0.90;;;7.40;70.50;;;;;;5053264;28;20495;-62
2023/11/29 12:25:09;;;;;;;1.05;0.70;;;7.30;70.10;;;;;;5038546;28;20025;-62
2023/11/29 12:27:35;;;;;;;1.23;0.55;;;7.30;70.30;;;;;;5038855;28;20123;-62
2023/11/29 12:30:01;;;;;;;2.58;0.63;;;7.30;70.20;;;;;;5051788;28;20072;-62
2023/11/29 12:32:28;;;;;;;1.42;0.63;;;7.30;70.40;;;;;;5048249;28;20057;-61
2023/11/29 12:34:56;;;;;;;0.47;0.45;;;7.40;70.30;;;;;;5047018;28;20036;-62
2023/11/29 12:37:23;;;;;;;2.00;1.25;;;7.40;70.70;;;;;;5055460;28;20036;-61
2023/11/29 12:39:50;;;;;;;0.80;0.80;;;7.40;70.80;;;;;;5050593;28;20039;-62
2023/11/29 12:42:15;;;;;;;1.27;0.70;;;7.40;70.80;;;;;;5049819;28;20936;-62
2023/11/29 12:44:42;;;;;;;0.77;0.68;;;7.50;70.60;;;;;;5050438;28;20480;-60
2023/11/29 12:47:08;;;;;;;1.80;1.00;;;7.40;70.30;;;;;;5051376;28;20048;-62
2023/11/29 12:49:34;;;;;;;0.90;0.52;;;7.40;70.80;;;;;;5059400;28;20028;-61
2023/11/29 12:52:00;;;;;;;2.05;1.25;;;7.30;71.00;;;;;;5045660;28;20029;-61
2023/11/29 12:54:26;;;;;;;3.47;1.27;;;7.40;71.30;;;;;;5046808;28;20387;-61